sensor_id;sensor_type;location;lat;lon;timestamp;temperature;humidity
32865;DHT22;19219;44.500;11.188;2022-11-12T00:00:46;9.90;99.90
32865;DHT22;19219;44.500;11.188;2022-11-12T00:03:13;9.80;99.90
32865;DHT22;19219;44.500;11.188;2022-11-12T00:05:39;9.80;99.90
32865;DHT22;19219;44.500;11.188;2022-11-12T00:08:04;9.80;99.90
32865;DHT22;19219;44.500;11.188;2022-11-12T00:10:30;9.80;99.90
32865;DHT22;19219;44.500;11.188;2022-11-12T00:12:56;9.90;99.90
32865;DHT22;19219;44.500;11.188;2022-11-12T00:15:22;10.00;99.90
32865;DHT22;19219;44.500;11.188;2022-11-12T00:17:47;10.00;99.90
32865;DHT22;19219;44.500;11.188;2022-11-12T00:20:13;10.00;99.90
32865;DHT22;19219;44.500;11.188;2022-11-12T00:22:39;10.10;99.90
32865;DHT22;19219;44.500;11.188;2022-11-12T00:25:06;10.10;99.90
32865;DHT22;19219;44.500;11.188;2022-11-12T00:27:32;10.10;99.90
32865;DHT22;19219;44.500;11.188;2022-11-12T00:29:58;10.00;99.90
32865;DHT22;19219;44.500;11.188;2022-11-12T00:32:24;9.90;99.90
32865;DHT22;19219;44.500;11.188;2022-11-12T00:34:50;9.90;99.90
32865;DHT22;19219;44.500;11.188;2022-11-12T00:37:16;9.90;99.90
32865;DHT22;19219;44.500;11.188;2022-11-12T00:39:43;10.00;99.90
32865;DHT22;19219;44.500;11.188;2022-11-12T00:42:09;10.00;99.90
32865;DHT22;19219;44.500;11.188;2022-11-12T00:44:35;10.00;99.90
32865;DHT22;19219;44.500;11.188;2022-11-12T00:47:01;10.00;99.90
32865;DHT22;19219;44.500;11.188;2022-11-12T00:49:26;10.00;99.90
32865;DHT22;19219;44.500;11.188;2022-11-12T00:51:52;10.00;99.90
32865;DHT22;19219;44.500;11.188;2022-11-12T00:54:18;10.00;99.90
32865;DHT22;19219;44.500;11.188;2022-11-12T00:56:45;9.90;99.90
32865;DHT22;19219;44.500;11.188;2022-11-12T00:59:12;9.90;99.90
32865;DHT22;19219;44.500;11.188;2022-11-12T01:01:38;9.90;99.90
32865;DHT22;19219;44.500;11.188;2022-11-12T01:04:04;9.80;99.90
32865;DHT22;19219;44.500;11.188;2022-11-12T01:06:30;9.50;99.90
32865;DHT22;19219;44.500;11.188;2022-11-12T01:08:55;9.40;99.90
32865;DHT22;19219;44.500;11.188;2022-11-12T01:11:28;9.30;99.90
32865;DHT22;19219;44.500;11.188;2022-11-12T01:14:05;9.30;99.90
32865;DHT22;19219;44.500;11.188;2022-11-12T01:16:35;9.30;99.90
32865;DHT22;19219;44.500;11.188;2022-11-12T01:19:03;9.30;99.90
32865;DHT22;19219;44.500;11.188;2022-11-12T01:21:31;9.30;99.90
32865;DHT22;19219;44.500;11.188;2022-11-12T01:24:11;9.30;99.90
32865;DHT22;19219;44.500;11.188;2022-11-12T01:26:37;9.30;99.90
32865;DHT22;19219;44.500;11.188;2022-11-12T01:29:03;9.30;99.90
32865;DHT22;19219;44.500;11.188;2022-11-12T01:31:33;9.30;99.90
32865;DHT22;19219;44.500;11.188;2022-11-12T01:34:01;9.20;99.90
32865;DHT22;19219;44.500;11.188;2022-11-12T01:36:31;9.30;99.90
32865;DHT22;19219;44.500;11.188;2022-11-12T01:38:57;9.20;99.90
32865;DHT22;19219;44.500;11.188;2022-11-12T01:41:29;9.20;99.90
32865;DHT22;19219;44.500;11.188;2022-11-12T01:44:13;9.10;99.90
32865;DHT22;19219;44.500;11.188;2022-11-12T01:46:54;9.00;99.90
32865;DHT22;19219;44.500;11.188;2022-11-12T01:49:27;8.90;99.90
32865;DHT22;19219;44.500;11.188;2022-11-12T01:51:56;8.90;99.90
32865;DHT22;19219;44.500;11.188;2022-11-12T01:54:24;8.90;99.90
32865;DHT22;19219;44.500;11.188;2022-11-12T01:56:50;8.90;99.90
32865;DHT22;19219;44.500;11.188;2022-11-12T01:59:21;8.80;99.90
32865;DHT22;19219;44.500;11.188;2022-11-12T02:01:49;8.80;99.90
32865;DHT22;19219;44.500;11.188;2022-11-12T02:04:15;8.80;99.90
32865;DHT22;19219;44.500;11.188;2022-11-12T02:06:42;8.80;99.90
32865;DHT22;19219;44.500;11.188;2022-11-12T02:09:09;8.90;99.90
32865;DHT22;19219;44.500;11.188;2022-11-12T02:11:35;8.90;99.90
32865;DHT22;19219;44.500;11.188;2022-11-12T02:14:01;9.00;99.90
32865;DHT22;19219;44.500;11.188;2022-11-12T02:16:38;9.00;99.90
32865;DHT22;19219;44.500;11.188;2022-11-12T02:19:06;9.00;99.90
32865;DHT22;19219;44.500;11.188;2022-11-12T02:21:33;9.00;99.90
32865;DHT22;19219;44.500;11.188;2022-11-12T02:24:02;9.00;99.90
32865;DHT22;19219;44.500;11.188;2022-11-12T02:26:34;9.00;99.90
32865;DHT22;19219;44.500;11.188;2022-11-12T02:29:01;9.00;99.90
32865;DHT22;19219;44.500;11.188;2022-11-12T02:31:27;9.00;99.90
32865;DHT22;19219;44.500;11.188;2022-11-12T02:33:53;9.10;99.90
32865;DHT22;19219;44.500;11.188;2022-11-12T02:36:19;9.10;99.90
32865;DHT22;19219;44.500;11.188;2022-11-12T02:38:44;9.10;99.90
32865;DHT22;19219;44.500;11.188;2022-11-12T02:41:10;9.10;99.90
32865;DHT22;19219;44.500;11.188;2022-11-12T02:43:36;9.00;99.90
32865;DHT22;19219;44.500;11.188;2022-11-12T02:46:01;9.00;99.90
32865;DHT22;19219;44.500;11.188;2022-11-12T02:48:27;8.90;99.90
32865;DHT22;19219;44.500;11.188;2022-11-12T02:50:53;8.90;99.90
32865;DHT22;19219;44.500;11.188;2022-11-12T02:53:18;8.90;99.90
32865;DHT22;19219;44.500;11.188;2022-11-12T02:55:44;9.00;99.90
32865;DHT22;19219;44.500;11.188;2022-11-12T02:58:09;9.00;99.90
32865;DHT22;19219;44.500;11.188;2022-11-12T03:00:35;9.00;99.90
32865;DHT22;19219;44.500;11.188;2022-11-12T03:03:01;8.90;99.90
32865;DHT22;19219;44.500;11.188;2022-11-12T03:05:28;8.90;99.90
32865;DHT22;19219;44.500;11.188;2022-11-12T03:07:59;8.90;99.90
32865;DHT22;19219;44.500;11.188;2022-11-12T03:10:25;9.00;99.90
32865;DHT22;19219;44.500;11.188;2022-11-12T03:12:52;9.00;99.90
32865;DHT22;19219;44.500;11.188;2022-11-12T03:15:19;9.00;99.90
32865;DHT22;19219;44.500;11.188;2022-11-12T03:17:44;9.00;99.90
32865;DHT22;19219;44.500;11.188;2022-11-12T03:20:11;9.00;99.90
32865;DHT22;19219;44.500;11.188;2022-11-12T03:22:37;9.10;99.90
32865;DHT22;19219;44.500;11.188;2022-11-12T03:25:04;9.10;99.90
32865;DHT22;19219;44.500;11.188;2022-11-12T03:27:30;8.90;99.90
32865;DHT22;19219;44.500;11.188;2022-11-12T03:29:55;8.90;99.90
32865;DHT22;19219;44.500;11.188;2022-11-12T03:32:21;8.90;99.90
32865;DHT22;19219;44.500;11.188;2022-11-12T03:34:46;9.00;99.90
32865;DHT22;19219;44.500;11.188;2022-11-12T03:37:12;8.90;99.90
32865;DHT22;19219;44.500;11.188;2022-11-12T03:39:38;9.00;99.90
32865;DHT22;19219;44.500;11.188;2022-11-12T03:42:04;8.90;99.90
32865;DHT22;19219;44.500;11.188;2022-11-12T03:44:29;8.90;99.90
32865;DHT22;19219;44.500;11.188;2022-11-12T03:46:55;8.90;99.90
32865;DHT22;19219;44.500;11.188;2022-11-12T03:49:21;8.90;99.90
32865;DHT22;19219;44.500;11.188;2022-11-12T03:51:46;8.90;99.90
32865;DHT22;19219;44.500;11.188;2022-11-12T03:54:12;8.80;99.90
32865;DHT22;19219;44.500;11.188;2022-11-12T03:56:38;8.80;99.90
32865;DHT22;19219;44.500;11.188;2022-11-12T03:59:04;8.90;99.90
32865;DHT22;19219;44.500;11.188;2022-11-12T04:01:30;9.00;99.90
32865;DHT22;19219;44.500;11.188;2022-11-12T04:03:56;9.00;99.90
32865;DHT22;19219;44.500;11.188;2022-11-12T04:06:22;9.00;99.90
32865;DHT22;19219;44.500;11.188;2022-11-12T04:09:06;9.00;99.90
32865;DHT22;19219;44.500;11.188;2022-11-12T04:11:31;9.00;99.90
32865;DHT22;19219;44.500;11.188;2022-11-12T04:14:09;9.00;99.90
32865;DHT22;19219;44.500;11.188;2022-11-12T04:16:35;8.90;99.90
32865;DHT22;19219;44.500;11.188;2022-11-12T04:19:19;8.80;99.90
32865;DHT22;19219;44.500;11.188;2022-11-12T04:22:08;8.80;99.90
32865;DHT22;19219;44.500;11.188;2022-11-12T04:24:36;8.90;99.90
32865;DHT22;19219;44.500;11.188;2022-11-12T04:27:26;8.90;99.90
32865;DHT22;19219;44.500;11.188;2022-11-12T04:29:53;9.00;99.90
32865;DHT22;19219;44.500;11.188;2022-11-12T04:35:11;9.00;99.90
32865;DHT22;19219;44.500;11.188;2022-11-12T04:37:38;9.00;99.90
32865;DHT22;19219;44.500;11.188;2022-11-12T04:42:56;9.00;99.90
32865;DHT22;19219;44.500;11.188;2022-11-12T04:45:41;9.00;99.90
32865;DHT22;19219;44.500;11.188;2022-11-12T04:48:08;9.00;99.90
32865;DHT22;19219;44.500;11.188;2022-11-12T04:50:34;9.00;99.90
32865;DHT22;19219;44.500;11.188;2022-11-12T04:53:00;8.90;99.90
32865;DHT22;19219;44.500;11.188;2022-11-12T04:55:25;8.90;99.90
32865;DHT22;19219;44.500;11.188;2022-11-12T04:57:51;8.90;99.90
32865;DHT22;19219;44.500;11.188;2022-11-12T05:00:16;9.00;99.90
32865;DHT22;19219;44.500;11.188;2022-11-12T05:02:42;9.00;99.90
32865;DHT22;19219;44.500;11.188;2022-11-12T05:05:08;9.00;99.90
32865;DHT22;19219;44.500;11.188;2022-11-12T05:07:33;9.00;99.90
32865;DHT22;19219;44.500;11.188;2022-11-12T05:09:59;9.00;99.90
32865;DHT22;19219;44.500;11.188;2022-11-12T05:12:25;9.10;99.90
32865;DHT22;19219;44.500;11.188;2022-11-12T05:14:50;9.00;99.90
32865;DHT22;19219;44.500;11.188;2022-11-12T05:17:16;9.10;99.90
32865;DHT22;19219;44.500;11.188;2022-11-12T05:19:41;9.10;99.90
32865;DHT22;19219;44.500;11.188;2022-11-12T05:22:09;9.20;99.90
32865;DHT22;19219;44.500;11.188;2022-11-12T05:24:39;9.20;99.90
32865;DHT22;19219;44.500;11.188;2022-11-12T05:27:11;9.20;99.90
32865;DHT22;19219;44.500;11.188;2022-11-12T05:29:37;9.30;99.90
32865;DHT22;19219;44.500;11.188;2022-11-12T05:32:05;9.20;99.90
32865;DHT22;19219;44.500;11.188;2022-11-12T05:34:32;9.20;99.90
32865;DHT22;19219;44.500;11.188;2022-11-12T05:36:58;9.20;99.90
32865;DHT22;19219;44.500;11.188;2022-11-12T05:39:24;9.20;99.90
32865;DHT22;19219;44.500;11.188;2022-11-12T05:41:50;9.20;99.90
32865;DHT22;19219;44.500;11.188;2022-11-12T05:44:16;9.20;99.90
32865;DHT22;19219;44.500;11.188;2022-11-12T05:46:42;9.20;99.90
32865;DHT22;19219;44.500;11.188;2022-11-12T05:49:08;9.20;99.90
32865;DHT22;19219;44.500;11.188;2022-11-12T05:51:34;9.20;99.90
32865;DHT22;19219;44.500;11.188;2022-11-12T05:54:00;9.10;99.90
32865;DHT22;19219;44.500;11.188;2022-11-12T05:56:26;9.10;99.90
32865;DHT22;19219;44.500;11.188;2022-11-12T05:58:52;9.10;99.90
32865;DHT22;19219;44.500;11.188;2022-11-12T06:01:18;9.10;99.90
32865;DHT22;19219;44.500;11.188;2022-11-12T06:03:43;9.20;99.90
32865;DHT22;19219;44.500;11.188;2022-11-12T06:06:09;9.20;99.90
32865;DHT22;19219;44.500;11.188;2022-11-12T06:08:35;9.30;99.90
32865;DHT22;19219;44.500;11.188;2022-11-12T06:11:01;9.30;99.90
32865;DHT22;19219;44.500;11.188;2022-11-12T06:13:26;9.40;99.90
32865;DHT22;19219;44.500;11.188;2022-11-12T06:15:52;9.40;99.90
32865;DHT22;19219;44.500;11.188;2022-11-12T06:18:19;9.40;99.90
32865;DHT22;19219;44.500;11.188;2022-11-12T06:20:44;9.40;99.90
32865;DHT22;19219;44.500;11.188;2022-11-12T06:23:30;9.40;99.90
32865;DHT22;19219;44.500;11.188;2022-11-12T06:25:56;9.50;99.90
32865;DHT22;19219;44.500;11.188;2022-11-12T06:28:21;9.60;99.90
32865;DHT22;19219;44.500;11.188;2022-11-12T06:30:47;9.50;99.90
32865;DHT22;19219;44.500;11.188;2022-11-12T06:33:12;9.60;99.90
32865;DHT22;19219;44.500;11.188;2022-11-12T06:35:38;9.60;99.90
32865;DHT22;19219;44.500;11.188;2022-11-12T06:38:04;9.60;99.90
32865;DHT22;19219;44.500;11.188;2022-11-12T06:40:29;9.60;99.90
32865;DHT22;19219;44.500;11.188;2022-11-12T06:42:56;9.50;99.90
32865;DHT22;19219;44.500;11.188;2022-11-12T06:45:22;9.50;99.90
32865;DHT22;19219;44.500;11.188;2022-11-12T06:47:47;9.50;99.90
32865;DHT22;19219;44.500;11.188;2022-11-12T06:50:13;9.50;99.90
32865;DHT22;19219;44.500;11.188;2022-11-12T06:52:39;9.60;99.90
32865;DHT22;19219;44.500;11.188;2022-11-12T06:55:05;9.70;99.90
32865;DHT22;19219;44.500;11.188;2022-11-12T06:57:33;9.70;99.90
32865;DHT22;19219;44.500;11.188;2022-11-12T06:59:58;9.80;99.90
32865;DHT22;19219;44.500;11.188;2022-11-12T07:02:24;9.80;99.90
32865;DHT22;19219;44.500;11.188;2022-11-12T07:04:50;9.90;99.90
32865;DHT22;19219;44.500;11.188;2022-11-12T07:07:16;10.10;99.90
32865;DHT22;19219;44.500;11.188;2022-11-12T07:09:41;10.10;99.90
32865;DHT22;19219;44.500;11.188;2022-11-12T07:12:07;10.20;99.90
32865;DHT22;19219;44.500;11.188;2022-11-12T07:14:33;10.30;99.90
32865;DHT22;19219;44.500;11.188;2022-11-12T07:16:59;10.40;99.90
32865;DHT22;19219;44.500;11.188;2022-11-12T07:19:24;10.50;99.90
32865;DHT22;19219;44.500;11.188;2022-11-12T07:21:50;10.60;99.90
32865;DHT22;19219;44.500;11.188;2022-11-12T07:24:16;10.70;99.90
32865;DHT22;19219;44.500;11.188;2022-11-12T07:26:42;10.80;99.90
32865;DHT22;19219;44.500;11.188;2022-11-12T07:29:08;10.80;99.90
32865;DHT22;19219;44.500;11.188;2022-11-12T07:31:33;10.80;99.90
32865;DHT22;19219;44.500;11.188;2022-11-12T07:33:59;10.90;99.90
32865;DHT22;19219;44.500;11.188;2022-11-12T07:36:25;11.00;99.90
32865;DHT22;19219;44.500;11.188;2022-11-12T07:38:52;11.00;99.90
32865;DHT22;19219;44.500;11.188;2022-11-12T07:41:23;11.10;99.90
32865;DHT22;19219;44.500;11.188;2022-11-12T07:43:51;11.20;99.90
32865;DHT22;19219;44.500;11.188;2022-11-12T07:46:19;11.30;99.90
32865;DHT22;19219;44.500;11.188;2022-11-12T07:48:45;11.40;99.90
32865;DHT22;19219;44.500;11.188;2022-11-12T07:51:25;11.50;99.90
32865;DHT22;19219;44.500;11.188;2022-11-12T07:53:52;11.70;99.90
32865;DHT22;19219;44.500;11.188;2022-11-12T07:56:20;11.70;99.90
32865;DHT22;19219;44.500;11.188;2022-11-12T07:58:47;11.90;99.90
32865;DHT22;19219;44.500;11.188;2022-11-12T08:03:59;12.10;99.90
32865;DHT22;19219;44.500;11.188;2022-11-12T08:06:25;12.20;99.90
32865;DHT22;19219;44.500;11.188;2022-11-12T08:08:52;12.30;99.90
32865;DHT22;19219;44.500;11.188;2022-11-12T08:11:18;12.50;99.90
32865;DHT22;19219;44.500;11.188;2022-11-12T08:13:43;12.60;99.90
32865;DHT22;19219;44.500;11.188;2022-11-12T08:16:09;12.70;99.90
32865;DHT22;19219;44.500;11.188;2022-11-12T08:18:35;12.80;99.90
32865;DHT22;19219;44.500;11.188;2022-11-12T08:21:06;12.90;99.90
32865;DHT22;19219;44.500;11.188;2022-11-12T08:23:32;13.00;99.90
32865;DHT22;19219;44.500;11.188;2022-11-12T08:26:03;13.10;99.90
32865;DHT22;19219;44.500;11.188;2022-11-12T08:28:31;13.20;99.90
32865;DHT22;19219;44.500;11.188;2022-11-12T08:30:58;13.30;99.90
32865;DHT22;19219;44.500;11.188;2022-11-12T08:33:27;13.40;99.90
32865;DHT22;19219;44.500;11.188;2022-11-12T08:35:53;13.50;99.90
32865;DHT22;19219;44.500;11.188;2022-11-12T08:38:18;13.50;99.90
32865;DHT22;19219;44.500;11.188;2022-11-12T08:40:44;13.60;99.90
32865;DHT22;19219;44.500;11.188;2022-11-12T08:43:10;13.70;99.90
32865;DHT22;19219;44.500;11.188;2022-11-12T08:45:37;13.80;99.90
32865;DHT22;19219;44.500;11.188;2022-11-12T08:48:06;13.90;99.90
32865;DHT22;19219;44.500;11.188;2022-11-12T08:50:33;14.00;99.90
32865;DHT22;19219;44.500;11.188;2022-11-12T08:53:00;14.10;99.90
32865;DHT22;19219;44.500;11.188;2022-11-12T08:55:27;14.30;99.90
32865;DHT22;19219;44.500;11.188;2022-11-12T08:57:52;14.40;99.90
32865;DHT22;19219;44.500;11.188;2022-11-12T09:00:18;14.50;99.90
32865;DHT22;19219;44.500;11.188;2022-11-12T09:02:44;14.60;99.90
32865;DHT22;19219;44.500;11.188;2022-11-12T09:05:09;14.70;99.90
32865;DHT22;19219;44.500;11.188;2022-11-12T09:07:35;14.80;99.90
32865;DHT22;19219;44.500;11.188;2022-11-12T09:10:01;14.80;99.90
32865;DHT22;19219;44.500;11.188;2022-11-12T09:12:27;14.90;99.90
32865;DHT22;19219;44.500;11.188;2022-11-12T09:14:52;15.00;99.90
32865;DHT22;19219;44.500;11.188;2022-11-12T09:17:18;15.10;99.90
32865;DHT22;19219;44.500;11.188;2022-11-12T09:19:44;15.30;99.90
32865;DHT22;19219;44.500;11.188;2022-11-12T09:22:09;15.30;99.90
32865;DHT22;19219;44.500;11.188;2022-11-12T09:24:35;15.50;99.90
32865;DHT22;19219;44.500;11.188;2022-11-12T09:27:00;15.60;99.90
32865;DHT22;19219;44.500;11.188;2022-11-12T09:29:26;15.70;99.90
32865;DHT22;19219;44.500;11.188;2022-11-12T09:31:52;15.70;99.90
32865;DHT22;19219;44.500;11.188;2022-11-12T09:34:18;15.80;99.90
32865;DHT22;19219;44.500;11.188;2022-11-12T09:36:44;15.70;99.90
32865;DHT22;19219;44.500;11.188;2022-11-12T09:39:12;15.70;99.90
32865;DHT22;19219;44.500;11.188;2022-11-12T09:41:39;15.80;99.90
32865;DHT22;19219;44.500;11.188;2022-11-12T09:44:11;15.90;99.90
32865;DHT22;19219;44.500;11.188;2022-11-12T09:49:18;16.00;99.90
32865;DHT22;19219;44.500;11.188;2022-11-12T09:52:05;15.90;99.90
32865;DHT22;19219;44.500;11.188;2022-11-12T09:54:35;15.90;99.90
32865;DHT22;19219;44.500;11.188;2022-11-12T09:57:02;15.80;99.90
32865;DHT22;19219;44.500;11.188;2022-11-12T09:59:30;15.70;99.90
32865;DHT22;19219;44.500;11.188;2022-11-12T10:08:10;15.60;99.90
32865;DHT22;19219;44.500;11.188;2022-11-12T10:10:57;15.60;99.90
32865;DHT22;19219;44.500;11.188;2022-11-12T10:22:05;15.70;99.90
32865;DHT22;19219;44.500;11.188;2022-11-12T10:24:36;15.70;99.90
32865;DHT22;19219;44.500;11.188;2022-11-12T10:27:19;15.80;99.90
32865;DHT22;19219;44.500;11.188;2022-11-12T10:30:04;15.80;99.90
32865;DHT22;19219;44.500;11.188;2022-11-12T10:32:30;15.80;99.90
32865;DHT22;19219;44.500;11.188;2022-11-12T10:34:55;15.80;99.90
32865;DHT22;19219;44.500;11.188;2022-11-12T10:39:53;15.80;99.90
32865;DHT22;19219;44.500;11.188;2022-11-12T10:42:21;15.70;99.90
32865;DHT22;19219;44.500;11.188;2022-11-12T10:44:47;15.70;99.90
32865;DHT22;19219;44.500;11.188;2022-11-12T10:52:35;15.60;99.90
32865;DHT22;19219;44.500;11.188;2022-11-12T10:57:43;15.60;99.90
32865;DHT22;19219;44.500;11.188;2022-11-12T11:02:47;15.60;99.90
32865;DHT22;19219;44.500;11.188;2022-11-12T11:08:00;15.70;99.90
32865;DHT22;19219;44.500;11.188;2022-11-12T11:10:32;15.70;99.90
32865;DHT22;19219;44.500;11.188;2022-11-12T11:13:24;15.60;99.90
32865;DHT22;19219;44.500;11.188;2022-11-12T11:16:02;15.70;99.90
32865;DHT22;19219;44.500;11.188;2022-11-12T11:18:31;15.70;99.90
32865;DHT22;19219;44.500;11.188;2022-11-12T11:21:29;15.70;99.90
32865;DHT22;19219;44.500;11.188;2022-11-12T11:30:10;15.80;99.90
32865;DHT22;19219;44.500;11.188;2022-11-12T11:56:58;15.80;99.90
32865;DHT22;19219;44.500;11.188;2022-11-12T12:10:49;15.60;99.90
32865;DHT22;19219;44.500;11.188;2022-11-12T12:21:49;15.40;99.90
32865;DHT22;19219;44.500;11.188;2022-11-12T12:24:20;15.50;99.90
32865;DHT22;19219;44.500;11.188;2022-11-12T12:26:54;15.40;99.90
32865;DHT22;19219;44.500;11.188;2022-11-12T12:29:44;15.50;99.90
32865;DHT22;19219;44.500;11.188;2022-11-12T12:32:13;15.60;99.90
32865;DHT22;19219;44.500;11.188;2022-11-12T12:34:46;15.60;99.90
32865;DHT22;19219;44.500;11.188;2022-11-12T12:37:41;15.60;99.90
32865;DHT22;19219;44.500;11.188;2022-11-12T12:42:53;15.60;99.90
32865;DHT22;19219;44.500;11.188;2022-11-12T12:45:25;15.60;99.90
32865;DHT22;19219;44.500;11.188;2022-11-12T12:47:55;15.50;99.90
32865;DHT22;19219;44.500;11.188;2022-11-12T12:50:22;15.50;99.90
32865;DHT22;19219;44.500;11.188;2022-11-12T12:58:01;15.60;99.90
32865;DHT22;19219;44.500;11.188;2022-11-12T13:02:59;15.60;99.90
32865;DHT22;19219;44.500;11.188;2022-11-12T13:05:30;15.60;99.90
32865;DHT22;19219;44.500;11.188;2022-11-12T13:08:01;15.60;99.90
32865;DHT22;19219;44.500;11.188;2022-11-12T13:10:49;15.60;99.90
32865;DHT22;19219;44.500;11.188;2022-11-12T13:15:46;15.60;99.90
32865;DHT22;19219;44.500;11.188;2022-11-12T13:23:58;15.60;99.90
32865;DHT22;19219;44.500;11.188;2022-11-12T13:26:48;15.70;99.90
32865;DHT22;19219;44.500;11.188;2022-11-12T13:29:38;15.60;99.90
32865;DHT22;19219;44.500;11.188;2022-11-12T13:34:48;15.60;99.90
32865;DHT22;19219;44.500;11.188;2022-11-12T13:37:19;15.60;99.90
32865;DHT22;19219;44.500;11.188;2022-11-12T13:39:45;15.60;99.90
32865;DHT22;19219;44.500;11.188;2022-11-12T13:42:13;15.50;99.90
32865;DHT22;19219;44.500;11.188;2022-11-12T13:44:59;15.60;99.90
32865;DHT22;19219;44.500;11.188;2022-11-12T13:47:25;15.60;99.90
32865;DHT22;19219;44.500;11.188;2022-11-12T13:49:54;15.50;99.90
32865;DHT22;19219;44.500;11.188;2022-11-12T13:52:23;15.50;99.90
32865;DHT22;19219;44.500;11.188;2022-11-12T13:55:01;15.50;99.90
32865;DHT22;19219;44.500;11.188;2022-11-12T13:57:30;15.50;99.90
32865;DHT22;19219;44.500;11.188;2022-11-12T14:00:26;15.50;99.90
32865;DHT22;19219;44.500;11.188;2022-11-12T14:03:00;15.50;99.90
32865;DHT22;19219;44.500;11.188;2022-11-12T14:05:32;15.50;99.90
32865;DHT22;19219;44.500;11.188;2022-11-12T14:16:27;15.60;99.90
32865;DHT22;19219;44.500;11.188;2022-11-12T14:24:40;15.50;99.90
32865;DHT22;19219;44.500;11.188;2022-11-12T14:30:04;15.50;99.90
32865;DHT22;19219;44.500;11.188;2022-11-12T14:32:34;15.40;99.90
32865;DHT22;19219;44.500;11.188;2022-11-12T14:34:59;15.40;99.90
32865;DHT22;19219;44.500;11.188;2022-11-12T14:37:49;15.40;99.90
32865;DHT22;19219;44.500;11.188;2022-11-12T14:40:16;15.40;99.90
32865;DHT22;19219;44.500;11.188;2022-11-12T14:42:42;15.30;99.90
32865;DHT22;19219;44.500;11.188;2022-11-12T14:45:19;15.20;99.90
32865;DHT22;19219;44.500;11.188;2022-11-12T14:47:47;15.20;99.90
32865;DHT22;19219;44.500;11.188;2022-11-12T14:50:30;15.10;99.90
32865;DHT22;19219;44.500;11.188;2022-11-12T14:53:12;15.10;99.90
32865;DHT22;19219;44.500;11.188;2022-11-12T14:55:41;15.00;99.90
32865;DHT22;19219;44.500;11.188;2022-11-12T14:58:14;15.00;99.90
32865;DHT22;19219;44.500;11.188;2022-11-12T15:00:46;14.90;99.90
32865;DHT22;19219;44.500;11.188;2022-11-12T15:03:32;14.90;99.90
32865;DHT22;19219;44.500;11.188;2022-11-12T15:08:37;14.60;99.90
32865;DHT22;19219;44.500;11.188;2022-11-12T15:13:44;14.50;99.90
32865;DHT22;19219;44.500;11.188;2022-11-12T15:16:20;14.40;99.90
32865;DHT22;19219;44.500;11.188;2022-11-12T15:19:06;14.30;99.90
32865;DHT22;19219;44.500;11.188;2022-11-12T15:21:53;14.20;99.90
32865;DHT22;19219;44.500;11.188;2022-11-12T15:26:50;14.00;99.90
32865;DHT22;19219;44.500;11.188;2022-11-12T15:29:30;13.90;99.90
32865;DHT22;19219;44.500;11.188;2022-11-12T15:34:42;13.80;99.90
32865;DHT22;19219;44.500;11.188;2022-11-12T15:39:49;13.60;99.90
32865;DHT22;19219;44.500;11.188;2022-11-12T15:42:38;13.60;99.90
32865;DHT22;19219;44.500;11.188;2022-11-12T15:47:35;13.30;99.90
32865;DHT22;19219;44.500;11.188;2022-11-12T15:52:40;13.10;99.90
32865;DHT22;19219;44.500;11.188;2022-11-12T15:55:06;12.90;99.90
32865;DHT22;19219;44.500;11.188;2022-11-12T15:57:37;12.90;99.90
32865;DHT22;19219;44.500;11.188;2022-11-12T16:00:08;12.90;99.90
32865;DHT22;19219;44.500;11.188;2022-11-12T16:02:34;12.70;99.90
32865;DHT22;19219;44.500;11.188;2022-11-12T16:05:00;12.60;99.90
32865;DHT22;19219;44.500;11.188;2022-11-12T16:07:26;12.60;99.90
32865;DHT22;19219;44.500;11.188;2022-11-12T16:09:52;12.50;99.90
32865;DHT22;19219;44.500;11.188;2022-11-12T16:12:18;12.50;99.90
32865;DHT22;19219;44.500;11.188;2022-11-12T16:14:44;12.50;99.90
32865;DHT22;19219;44.500;11.188;2022-11-12T16:17:18;12.30;99.90
32865;DHT22;19219;44.500;11.188;2022-11-12T16:19:44;12.30;99.90
32865;DHT22;19219;44.500;11.188;2022-11-12T16:22:09;12.30;99.90
32865;DHT22;19219;44.500;11.188;2022-11-12T16:24:41;12.20;99.90
32865;DHT22;19219;44.500;11.188;2022-11-12T16:27:12;12.20;99.90
32865;DHT22;19219;44.500;11.188;2022-11-12T16:29:38;12.20;99.90
32865;DHT22;19219;44.500;11.188;2022-11-12T16:32:04;12.10;99.90
32865;DHT22;19219;44.500;11.188;2022-11-12T16:34:30;12.10;99.90
32865;DHT22;19219;44.500;11.188;2022-11-12T16:36:56;12.10;99.90
32865;DHT22;19219;44.500;11.188;2022-11-12T16:39:22;12.10;99.90
32865;DHT22;19219;44.500;11.188;2022-11-12T16:41:48;12.10;99.90
32865;DHT22;19219;44.500;11.188;2022-11-12T16:44:14;12.00;99.90
32865;DHT22;19219;44.500;11.188;2022-11-12T16:46:40;12.00;99.90
32865;DHT22;19219;44.500;11.188;2022-11-12T16:49:13;12.00;99.90
32865;DHT22;19219;44.500;11.188;2022-11-12T16:51:39;12.00;99.90
32865;DHT22;19219;44.500;11.188;2022-11-12T16:54:05;11.90;99.90
32865;DHT22;19219;44.500;11.188;2022-11-12T16:56:32;11.90;99.90
32865;DHT22;19219;44.500;11.188;2022-11-12T16:58:58;11.90;99.90
32865;DHT22;19219;44.500;11.188;2022-11-12T17:01:26;11.90;99.90
32865;DHT22;19219;44.500;11.188;2022-11-12T17:03:53;11.90;99.90
32865;DHT22;19219;44.500;11.188;2022-11-12T17:06:20;12.00;99.90
32865;DHT22;19219;44.500;11.188;2022-11-12T17:08:46;12.00;99.90
32865;DHT22;19219;44.500;11.188;2022-11-12T17:11:15;12.00;99.90
32865;DHT22;19219;44.500;11.188;2022-11-12T17:13:41;12.00;99.90
32865;DHT22;19219;44.500;11.188;2022-11-12T17:16:07;12.00;99.90
32865;DHT22;19219;44.500;11.188;2022-11-12T17:18:33;12.10;99.90
32865;DHT22;19219;44.500;11.188;2022-11-12T17:23:32;12.00;99.90
32865;DHT22;19219;44.500;11.188;2022-11-12T17:26:02;12.00;99.90
32865;DHT22;19219;44.500;11.188;2022-11-12T17:28:29;12.00;99.90
32865;DHT22;19219;44.500;11.188;2022-11-12T17:31:21;12.10;99.90
32865;DHT22;19219;44.500;11.188;2022-11-12T17:33:49;12.00;99.90
32865;DHT22;19219;44.500;11.188;2022-11-12T17:36:17;12.00;99.90
32865;DHT22;19219;44.500;11.188;2022-11-12T17:38:43;12.00;99.90
32865;DHT22;19219;44.500;11.188;2022-11-12T17:41:09;12.00;99.90
32865;DHT22;19219;44.500;11.188;2022-11-12T17:43:35;12.00;99.90
32865;DHT22;19219;44.500;11.188;2022-11-12T17:46:02;12.00;99.90
32865;DHT22;19219;44.500;11.188;2022-11-12T17:48:30;12.00;99.90
32865;DHT22;19219;44.500;11.188;2022-11-12T17:51:05;12.00;99.90
32865;DHT22;19219;44.500;11.188;2022-11-12T17:53:31;12.00;99.90
32865;DHT22;19219;44.500;11.188;2022-11-12T17:55:57;11.90;99.90
32865;DHT22;19219;44.500;11.188;2022-11-12T17:58:24;11.90;99.90
32865;DHT22;19219;44.500;11.188;2022-11-12T18:00:50;11.90;99.90
32865;DHT22;19219;44.500;11.188;2022-11-12T18:03:18;11.90;99.90